Time;durP1;ratioP1;P1;durP2;ratioP2;P2;SDS_P1;SDS_P2;PMS_P1;PMS_P2;Temp;Humidity;BMP_temperature;BMP_pressure;BME280_temperature;BME280_humidity;BME280_pressure;Samples;Min_cycle;Max_cycle;Signal;HPM_P1;HPM_P2
2022/09/07 00:00:10;;;;;;;4.07;1.58;;;;;;;;;;5011713;28;20046;-95
2022/09/07 00:02:37;;;;;;;3.00;1.35;;;;;;;;;;4998601;28;20498;-95
2022/09/07 00:05:09;;;;;;;2.88;1.40;;;;;;;;;;5030970;28;20141;-95
2022/09/07 00:07:37;;;;;;;3.20;1.35;;;;;;;;;;5031143;28;20050;-95
2022/09/07 00:10:05;;;;;;;3.45;1.70;;;;;;;;;;5035124;28;20060;-87
2022/09/07 00:12:33;;;;;;;4.43;1.73;;;;;;;;;;5059704;28;20049;-87
2022/09/07 00:15:02;;;;;;;4.22;1.48;;;;;;;;;;5028120;28;21033;-87
2022/09/07 00:17:31;;;;;;;4.07;1.67;;;;;;;;;;5029354;28;20119;-87
2022/09/07 00:19:59;;;;;;;2.67;1.40;;;;;;;;;;5015349;28;20133;-95
2022/09/07 00:22:27;;;;;;;2.95;1.55;;;;;;;;;;5050420;28;20482;-95
2022/09/07 00:24:59;;;;;;;4.47;1.60;;;;;;;;;;5049902;28;20092;-95
2022/09/07 00:27:27;;;;;;;3.13;1.70;;;;;;;;;;5034022;28;20079;-95
2022/09/07 00:30:19;;;;;;;6.32;1.60;;;;;;;;;;5044728;28;20402;-87
2022/09/07 00:32:47;;;;;;;5.53;1.52;;;;;;;;;;5029094;28;20037;-87
2022/09/07 00:35:15;;;;;;;8.73;1.65;;;;;;;;;;5046483;28;20050;-87
2022/09/07 00:37:43;;;;;;;4.35;1.65;;;;;;;;;;5030829;28;20759;-87
2022/09/07 00:40:15;;;;;;;5.05;1.70;;;;;;;;;;5023755;28;20565;-87
2022/09/07 00:42:43;;;;;;;5.07;1.63;;;;;;;;;;5012463;28;20037;-87
2022/09/07 00:45:19;;;;;;;3.53;1.55;;;;;;;;;;5026207;28;20047;-87
2022/09/07 00:48:00;;;;;;;4.80;1.45;;;;;;;;;;5046336;28;20419;-87
2022/09/07 00:50:34;;;;;;;3.83;1.50;;;;;;;;;;5029940;28;20038;-95
2022/09/07 00:53:28;;;;;;;7.80;1.67;;;;;;;;;;5050399;28;20515;-95
2022/09/07 00:56:03;;;;;;;4.80;1.52;;;;;;;;;;5001660;28;20057;-95
2022/09/07 00:58:37;;;;;;;3.55;1.65;;;;;;;;;;5018441;28;20128;-95
2022/09/07 01:01:05;;;;;;;3.08;1.60;;;;;;;;;;5029950;28;20042;-87
2022/09/07 01:03:42;;;;;;;4.40;1.70;;;;;;;;;;5060309;28;20049;-87
2022/09/07 01:06:31;;;;;;;4.03;1.60;;;;;;;;;;5013975;28;20041;-87
2022/09/07 01:09:03;;;;;;;3.90;1.65;;;;;;;;;;5046026;28;20099;-87
2022/09/07 01:11:33;;;;;;;4.38;1.70;;;;;;;;;;5025938;28;20071;-87
2022/09/07 01:14:31;;;;;;;4.85;1.67;;;;;;;;;;5025759;28;20547;-87
2022/09/07 01:17:25;;;;;;;5.03;2.05;;;;;;;;;;5026769;28;20132;-87
2022/09/07 01:20:38;;;;;;;6.00;1.80;;;;;;;;;;5025308;28;20052;-87
2022/09/07 01:23:23;;;;;;;7.03;1.70;;;;;;;;;;5029818;28;20042;-87
2022/09/07 01:26:16;;;;;;;5.75;1.70;;;;;;;;;;5022938;28;20042;-87
2022/09/07 01:28:48;;;;;;;3.70;1.50;;;;;;;;;;4998625;28;20038;-87
2022/09/07 01:31:21;;;;;;;3.67;1.65;;;;;;;;;;5061648;28;20064;-95
2022/09/07 01:34:21;;;;;;;3.58;1.80;;;;;;;;;;5042732;28;20391;-95
2022/09/07 01:37:01;;;;;;;2.75;1.50;;;;;;;;;;5062583;28;20054;-95
2022/09/07 01:39:39;;;;;;;2.78;1.60;;;;;;;;;;5048354;28;20084;-87
2022/09/07 01:42:10;;;;;;;6.45;2.40;;;;;;;;;;5010087;28;20378;-87
2022/09/07 01:44:45;;;;;;;4.05;1.80;;;;;;;;;;5019762;28;20053;-87
2022/09/07 01:47:32;;;;;;;4.20;1.60;;;;;;;;;;5027139;28;20083;-87
2022/09/07 01:50:06;;;;;;;3.50;1.75;;;;;;;;;;5026158;28;20065;-94
2022/09/07 01:52:41;;;;;;;3.15;1.73;;;;;;;;;;5049189;28;20501;-95
2022/09/07 01:55:18;;;;;;;3.88;1.77;;;;;;;;;;5050059;28;20076;-96
2022/09/07 01:57:55;;;;;;;5.13;1.98;;;;;;;;;;5032796;28;20091;-96
2022/09/07 02:00:24;;;;;;;3.40;2.00;;;;;;;;;;5046807;28;20610;-87
2022/09/07 02:02:58;;;;;;;3.75;1.85;;;;;;;;;;5028592;28;20065;-87
2022/09/07 02:05:49;;;;;;;5.53;2.10;;;;;;;;;;5046345;28;20104;-86
2022/09/07 02:08:55;;;;;;;4.70;1.85;;;;;;;;;;5027657;28;20037;-87
2022/09/07 02:11:33;;;;;;;5.72;2.20;;;;;;;;;;5040844;28;20045;-87
2022/09/07 02:14:14;;;;;;;4.68;1.90;;;;;;;;;;5013729;28;20461;-87
2022/09/07 02:16:57;;;;;;;5.43;2.00;;;;;;;;;;5056861;28;20871;-87
2022/09/07 02:19:29;;;;;;;4.43;2.58;;;;;;;;;;5026130;28;20061;-94
2022/09/07 02:22:02;;;;;;;5.43;1.95;;;;;;;;;;5016179;28;20505;-95
2022/09/07 02:24:34;;;;;;;4.35;2.20;;;;;;;;;;5049007;28;20049;-95
2022/09/07 02:27:08;;;;;;;5.93;1.83;;;;;;;;;;5032353;28;20050;-95
2022/09/07 02:29:42;;;;;;;5.95;2.20;;;;;;;;;;5033576;28;20099;-87
2022/09/07 02:32:35;;;;;;;5.70;2.33;;;;;;;;;;5031882;28;20140;-87
2022/09/07 02:35:27;;;;;;;3.75;1.83;;;;;;;;;;5027018;28;20026;-87
2022/09/07 02:38:19;;;;;;;6.88;2.30;;;;;;;;;;5032209;28;20041;-86
2022/09/07 02:41:32;;;;;;;4.05;2.03;;;;;;;;;;5067303;28;20052;-94
2022/09/07 02:44:26;;;;;;;3.83;2.00;;;;;;;;;;5069245;28;20477;-95
2022/09/07 02:47:18;;;;;;;7.93;2.30;;;;;;;;;;5036029;28;20042;-95
2022/09/07 02:50:40;;;;;;;4.40;2.42;;;;;;;;;;5048999;28;20060;-87
2022/09/07 02:53:48;;;;;;;8.07;2.38;;;;;;;;;;5032208;28;20477;-87
2022/09/07 02:56:46;;;;;;;6.53;2.25;;;;;;;;;;5027663;28;20132;-87
2022/09/07 02:59:19;;;;;;;4.00;2.20;;;;;;;;;;5015856;28;20075;-87
2022/09/07 03:02:23;;;;;;;6.65;2.53;;;;;;;;;;5008909;28;20045;-87
2022/09/07 03:05:02;;;;;;;5.97;2.38;;;;;;;;;;5011701;28;20422;-87
2022/09/07 03:08:08;;;;;;;6.07;2.55;;;;;;;;;;5014726;28;20037;-87
2022/09/07 03:10:38;;;;;;;5.22;2.30;;;;;;;;;;5012560;28;20033;-87
2022/09/07 03:13:05;;;;;;;5.30;2.30;;;;;;;;;;5012923;28;20132;-87
2022/09/07 03:15:33;;;;;;;5.38;2.95;;;;;;;;;;4996021;28;20591;-87
2022/09/07 03:18:05;;;;;;;5.60;2.50;;;;;;;;;;5029073;28;20046;-87
2022/09/07 03:20:37;;;;;;;6.45;2.78;;;;;;;;;;5032332;28;20073;-95
2022/09/07 03:23:05;;;;;;;5.13;2.65;;;;;;;;;;5002005;28;20081;-95
2022/09/07 03:25:57;;;;;;;5.22;2.67;;;;;;;;;;5004882;28;20061;-95
2022/09/07 03:28:52;;;;;;;9.70;2.75;;;;;;;;;;5034370;28;20037;-95
2022/09/07 03:31:19;;;;;;;8.35;2.60;;;;;;;;;;4994748;28;20061;-86
2022/09/07 03:33:47;;;;;;;5.30;2.83;;;;;;;;;;5024866;28;20509;-87
2022/09/07 03:36:15;;;;;;;5.65;3.00;;;;;;;;;;5025148;28;20041;-86
2022/09/07 03:38:43;;;;;;;6.38;2.83;;;;;;;;;;5024385;28;20061;-86
2022/09/07 03:41:11;;;;;;;5.30;2.92;;;;;;;;;;5023668;28;20088;-95
2022/09/07 03:43:39;;;;;;;13.70;3.00;;;;;;;;;;5015362;28;20505;-96
2022/09/07 03:46:16;;;;;;;6.05;2.78;;;;;;;;;;5015239;28;20050;-95
2022/09/07 03:48:50;;;;;;;5.22;3.00;;;;;;;;;;5015438;28;20041;-96
2022/09/07 03:51:17;;;;;;;4.78;3.00;;;;;;;;;;5011311;28;20410;-87
2022/09/07 03:53:46;;;;;;;7.40;3.47;;;;;;;;;;5013104;28;20033;-87
2022/09/07 03:56:17;;;;;;;8.23;3.30;;;;;;;;;;5041289;28;20042;-87
2022/09/07 03:58:53;;;;;;;8.30;3.08;;;;;;;;;;5010131;28;20045;-87
2022/09/07 04:01:45;;;;;;;7.40;3.40;;;;;;;;;;5054277;28;20487;-87
2022/09/07 04:04:13;;;;;;;8.48;3.40;;;;;;;;;;5023830;28;20042;-87
2022/09/07 04:06:45;;;;;;;7.60;3.28;;;;;;;;;;5056413;28;20441;-87
2022/09/07 04:09:14;;;;;;;5.95;3.50;;;;;;;;;;5043483;28;20410;-96
2022/09/07 04:11:41;;;;;;;7.65;3.85;;;;;;;;;;5018126;28;20454;-96
2022/09/07 04:14:10;;;;;;;8.57;4.22;;;;;;;;;;5017971;28;20046;-95
2022/09/07 04:16:44;;;;;;;8.13;3.40;;;;;;;;;;5050967;28;20053;-96
2022/09/07 04:19:35;;;;;;;5.95;3.40;;;;;;;;;;5034412;28;20037;-95
2022/09/07 04:22:38;;;;;;;8.30;3.20;;;;;;;;;;5055389;28;20428;-96
2022/09/07 04:25:05;;;;;;;6.63;3.90;;;;;;;;;;5034374;28;20053;-96
2022/09/07 04:27:33;;;;;;;6.60;3.80;;;;;;;;;;5051810;28;20049;-95
2022/09/07 04:30:01;;;;;;;7.38;3.85;;;;;;;;;;5049475;28;20400;-87
2022/09/07 04:32:29;;;;;;;9.63;3.72;;;;;;;;;;5023007;28;20481;-87
2022/09/07 04:34:57;;;;;;;11.82;4.38;;;;;;;;;;5013174;28;20067;-87
2022/09/07 04:37:25;;;;;;;6.25;3.63;;;;;;;;;;5044683;28;20182;-87
2022/09/07 04:39:53;;;;;;;10.73;4.20;;;;;;;;;;5034997;28;20061;-96
2022/09/07 04:42:21;;;;;;;11.23;4.20;;;;;;;;;;5017512;28;20061;-96
2022/09/07 04:44:49;;;;;;;11.05;4.03;;;;;;;;;;5051419;28;20083;-96
2022/09/07 04:47:21;;;;;;;8.95;3.63;;;;;;;;;;5002089;28;20053;-96
2022/09/07 04:49:50;;;;;;;8.30;3.22;;;;;;;;;;5032332;28;20659;-88
2022/09/07 04:52:18;;;;;;;10.52;4.00;;;;;;;;;;5029501;28;20701;-87
2022/09/07 04:54:49;;;;;;;11.02;4.10;;;;;;;;;;5030290;28;20099;-88
2022/09/07 05:00:11;;;;;;;5.97;3.13;;;;;;;;;;5047493;28;20035;-88
2022/09/07 05:02:39;;;;;;;10.43;3.42;;;;;;;;;;5030769;28;20107;-87
2022/09/07 05:05:07;;;;;;;7.90;3.53;;;;;;;;;;5045537;28;20042;-87
2022/09/07 05:07:35;;;;;;;8.18;3.30;;;;;;;;;;5027269;28;20045;-88
2022/09/07 05:10:03;;;;;;;8.93;3.65;;;;;;;;;;5016680;28;20079;-95
2022/09/07 05:12:31;;;;;;;9.63;3.78;;;;;;;;;;5033532;28;20049;-96
2022/09/07 05:15:00;;;;;;;8.35;3.75;;;;;;;;;;5017347;28;20050;-96
2022/09/07 05:17:29;;;;;;;7.20;3.25;;;;;;;;;;5018077;28;20047;-96
2022/09/07 05:19:57;;;;;;;7.50;3.80;;;;;;;;;;5034751;28;20137;-87
2022/09/07 05:22:58;;;;;;;6.10;3.25;;;;;;;;;;5044010;28;20029;-87
2022/09/07 05:25:27;;;;;;;8.00;3.33;;;;;;;;;;5013781;28;20069;-88
2022/09/07 05:27:55;;;;;;;9.82;3.30;;;;;;;;;;5028169;28;20080;-87
2022/09/07 05:30:23;;;;;;;8.50;3.70;;;;;;;;;;5045299;28;20393;-96
2022/09/07 05:33:11;;;;;;;11.50;3.38;;;;;;;;;;5034382;28;20127;-96
2022/09/07 05:35:39;;;;;;;9.98;3.53;;;;;;;;;;5035574;28;20460;-96
2022/09/07 05:38:35;;;;;;;6.50;2.85;;;;;;;;;;5055979;28;20053;-96
2022/09/07 05:45:21;;;;;;;6.32;2.95;;;;;;;;;;5071364;28;20087;-96
2022/09/07 05:47:52;;;;;;;7.18;3.70;;;;;;;;;;5041103;28;20049;-96
2022/09/07 05:50:19;;;;;;;10.88;3.50;;;;;;;;;;5042484;28;20069;-96
2022/09/07 05:52:48;;;;;;;6.25;3.50;;;;;;;;;;5019055;28;20046;-96
2022/09/07 05:55:39;;;;;;;9.18;3.50;;;;;;;;;;5030347;28;20034;-94
2022/09/07 05:58:32;;;;;;;7.57;3.45;;;;;;;;;;5014163;28;20494;-94
2022/09/07 06:01:08;;;;;;;6.93;3.33;;;;;;;;;;5013852;28;20048;-96
2022/09/07 06:03:37;;;;;;;10.57;3.25;;;;;;;;;;5012911;28;20056;-96
2022/09/07 06:06:14;;;;;;;7.43;3.30;;;;;;;;;;5029688;28;20033;-96
2022/09/07 06:08:50;;;;;;;7.50;3.20;;;;;;;;;;4996468;28;20061;-96
2022/09/07 06:11:25;;;;;;;8.30;2.80;;;;;;;;;;5029292;28;20052;-87
2022/09/07 06:13:53;;;;;;;6.05;3.15;;;;;;;;;;5029173;28;21987;-87
2022/09/07 06:16:25;;;;;;;7.63;3.15;;;;;;;;;;5026143;28;20041;-87
2022/09/07 06:18:53;;;;;;;5.30;2.78;;;;;;;;;;5027062;28;20048;-87
2022/09/07 06:21:22;;;;;;;8.00;3.28;;;;;;;;;;5027708;28;20052;-88
2022/09/07 06:23:50;;;;;;;14.45;3.38;;;;;;;;;;5029415;28;20123;-87
2022/09/07 06:26:18;;;;;;;7.90;3.00;;;;;;;;;;5013516;28;20486;-87
2022/09/07 06:28:47;;;;;;;8.23;3.20;;;;;;;;;;5031440;28;20128;-87
2022/09/07 06:31:24;;;;;;;10.73;3.45;;;;;;;;;;5014503;28;20573;-96
2022/09/07 06:33:51;;;;;;;5.03;2.92;;;;;;;;;;5049128;28;20064;-96
2022/09/07 06:36:43;;;;;;;9.45;3.22;;;;;;;;;;5050627;28;20038;-96
2022/09/07 06:39:11;;;;;;;5.72;2.72;;;;;;;;;;5034058;28;20053;-88
2022/09/07 06:41:39;;;;;;;6.40;2.95;;;;;;;;;;5049589;28;20053;-96
2022/09/07 06:44:30;;;;;;;6.30;3.13;;;;;;;;;;5036592;28;20046;-96
2022/09/07 06:46:57;;;;;;;9.40;2.92;;;;;;;;;;5049618;28;20452;-96
2022/09/07 06:49:31;;;;;;;5.40;2.92;;;;;;;;;;5033767;28;20045;-96
2022/09/07 06:51:59;;;;;;;5.45;2.85;;;;;;;;;;5042961;28;20049;-89
2022/09/07 06:54:31;;;;;;;5.53;2.70;;;;;;;;;;5024187;28;20057;-89
2022/09/07 06:57:19;;;;;;;6.28;2.90;;;;;;;;;;5029824;28;20083;-89
2022/09/07 06:59:51;;;;;;;6.80;3.25;;;;;;;;;;5046595;28;20042;-96
2022/09/07 07:02:25;;;;;;;8.93;2.90;;;;;;;;;;5034239;28;20482;-96
2022/09/07 07:04:53;;;;;;;4.82;2.50;;;;;;;;;;5049189;28;20052;-95
2022/09/07 07:07:45;;;;;;;8.75;3.58;;;;;;;;;;5052910;28;20502;-96
2022/09/07 07:13:07;;;;;;;5.63;3.17;;;;;;;;;;5043076;28;20177;-89
2022/09/07 07:15:35;;;;;;;7.50;3.03;;;;;;;;;;5029296;28;20100;-89
2022/09/07 07:18:03;;;;;;;8.43;3.35;;;;;;;;;;5031071;28;20126;-89
2022/09/07 07:21:15;;;;;;;7.68;3.28;;;;;;;;;;5052677;28;20061;-88
2022/09/07 07:24:07;;;;;;;7.45;3.33;;;;;;;;;;5029695;28;20068;-89
2022/09/07 07:26:35;;;;;;;5.50;2.92;;;;;;;;;;5043941;28;20034;-89
2022/09/07 07:29:03;;;;;;;5.20;3.15;;;;;;;;;;5043227;28;20432;-95
2022/09/07 07:31:32;;;;;;;7.88;4.00;;;;;;;;;;5047132;28;20129;-95
2022/09/07 07:33:59;;;;;;;5.20;3.53;;;;;;;;;;5035106;28;20477;-95
2022/09/07 07:36:27;;;;;;;6.80;3.50;;;;;;;;;;5048830;28;20068;-94
2022/09/07 07:38:59;;;;;;;8.23;3.35;;;;;;;;;;5033079;28;20064;-95
2022/09/07 07:41:30;;;;;;;7.57;3.75;;;;;;;;;;5000460;28;20096;-89
2022/09/07 07:44:17;;;;;;;7.53;3.47;;;;;;;;;;5035197;28;20135;-89
2022/09/07 07:46:51;;;;;;;5.93;3.67;;;;;;;;;;4996577;28;20064;-89
2022/09/07 07:49:21;;;;;;;8.15;4.30;;;;;;;;;;5026481;28;20040;-95
2022/09/07 07:51:52;;;;;;;8.00;3.85;;;;;;;;;;5031082;28;20457;-89
2022/09/07 07:54:39;;;;;;;8.13;3.55;;;;;;;;;;5042769;28;20038;-89
2022/09/07 07:57:07;;;;;;;5.82;3.42;;;;;;;;;;5042907;28;20073;-89
2022/09/07 08:00:01;;;;;;;6.97;3.70;;;;;;;;;;5025634;28;20041;-96
2022/09/07 08:02:37;;;;;;;6.93;3.97;;;;;;;;;;5031235;28;20073;-96
2022/09/07 08:05:05;;;;;;;6.43;3.67;;;;;;;;;;5031508;28;20395;-95
2022/09/07 08:07:33;;;;;;;9.30;4.25;;;;;;;;;;5031183;28;20141;-95
2022/09/07 08:10:01;;;;;;;7.43;3.80;;;;;;;;;;5019762;28;20042;-89
2022/09/07 08:12:30;;;;;;;7.88;3.50;;;;;;;;;;5027737;28;20371;-89
2022/09/07 08:14:57;;;;;;;5.53;3.40;;;;;;;;;;5039426;28;20056;-88
2022/09/07 08:17:25;;;;;;;6.97;3.50;;;;;;;;;;5047149;28;20049;-88
2022/09/07 08:20:17;;;;;;;8.48;3.92;;;;;;;;;;5009673;28;20033;-96
2022/09/07 08:22:48;;;;;;;10.02;4.25;;;;;;;;;;5021898;28;20050;-95
2022/09/07 08:25:18;;;;;;;7.22;4.03;;;;;;;;;;5001744;28;20517;-95
2022/09/07 08:27:45;;;;;;;8.75;3.85;;;;;;;;;;5017591;28;20053;-96
2022/09/07 08:30:13;;;;;;;8.95;4.10;;;;;;;;;;5054350;28;20072;-95
2022/09/07 08:32:41;;;;;;;10.02;3.78;;;;;;;;;;5037247;28;20100;-95
2022/09/07 08:35:33;;;;;;;6.43;3.80;;;;;;;;;;5033777;28;20053;-95
2022/09/07 08:38:01;;;;;;;7.07;3.80;;;;;;;;;;5017458;28;20041;-96
2022/09/07 08:40:31;;;;;;;6.10;3.83;;;;;;;;;;5033903;28;20049;-95
2022/09/07 08:43:14;;;;;;;8.02;3.80;;;;;;;;;;5033662;28;20048;-96
2022/09/07 08:45:50;;;;;;;7.13;3.50;;;;;;;;;;5033899;28;20053;-96
2022/09/07 08:48:21;;;;;;;10.10;3.78;;;;;;;;;;5033949;28;20054;-96
2022/09/07 08:50:57;;;;;;;5.63;3.80;;;;;;;;;;5050473;28;20064;-96
2022/09/07 08:53:26;;;;;;;8.57;3.67;;;;;;;;;;5049836;28;20080;-96
2022/09/07 08:56:00;;;;;;;10.52;3.88;;;;;;;;;;5036535;28;20046;-95
2022/09/07 08:58:52;;;;;;;8.52;4.05;;;;;;;;;;5033615;28;20044;-95
2022/09/07 09:01:28;;;;;;;7.97;3.67;;;;;;;;;;5033435;28;20132;-96
2022/09/07 09:03:57;;;;;;;6.15;3.90;;;;;;;;;;5034275;28;20050;-96
2022/09/07 09:07:10;;;;;;;7.50;3.78;;;;;;;;;;5035990;28;20045;-96
2022/09/07 09:09:44;;;;;;;7.28;4.20;;;;;;;;;;5049686;28;20047;-89
2022/09/07 09:12:32;;;;;;;7.35;3.83;;;;;;;;;;5028149;28;20049;-88
2022/09/07 09:15:29;;;;;;;9.25;3.60;;;;;;;;;;5028058;28;20047;-88
2022/09/07 09:18:25;;;;;;;7.85;3.60;;;;;;;;;;5025163;28;20056;-88
2022/09/07 09:20:57;;;;;;;7.63;3.90;;;;;;;;;;5043461;28;20041;-88
2022/09/07 09:23:38;;;;;;;8.20;3.90;;;;;;;;;;5045531;28;20069;-89
2022/09/07 09:26:23;;;;;;;8.55;4.18;;;;;;;;;;5027198;28;20111;-88
2022/09/07 09:28:51;;;;;;;7.07;3.60;;;;;;;;;;5053525;28;20121;-88
2022/09/07 09:31:41;;;;;;;8.23;4.45;;;;;;;;;;5057616;28;20501;-88
2022/09/07 09:34:14;;;;;;;6.60;3.90;;;;;;;;;;5027390;28;20076;-88
2022/09/07 09:37:35;;;;;;;7.80;4.00;;;;;;;;;;5023726;28;20048;-88
2022/09/07 09:40:05;;;;;;;9.70;4.70;;;;;;;;;;5026463;28;20074;-87
2022/09/07 09:42:34;;;;;;;7.75;3.95;;;;;;;;;;5027886;28;20046;-88
2022/09/07 09:45:26;;;;;;;8.20;4.00;;;;;;;;;;5042704;28;20529;-88
2022/09/07 09:47:53;;;;;;;6.90;3.70;;;;;;;;;;5042060;28;20045;-88
2022/09/07 09:50:31;;;;;;;5.82;3.78;;;;;;;;;;5029623;28;20041;-96
2022/09/07 09:53:42;;;;;;;6.03;3.85;;;;;;;;;;5003455;28;20053;-96
2022/09/07 09:56:15;;;;;;;6.30;3.40;;;;;;;;;;5032243;28;20046;-96
2022/09/07 09:58:46;;;;;;;6.75;3.85;;;;;;;;;;5016311;28;20057;-96
2022/09/07 10:01:33;;;;;;;7.38;3.80;;;;;;;;;;5029628;28;20099;-96
2022/09/07 10:04:30;;;;;;;5.68;3.67;;;;;;;;;;5032809;28;20049;-96
2022/09/07 10:10:02;;;;;;;7.95;4.10;;;;;;;;;;5048295;28;20049;-88
2022/09/07 10:12:35;;;;;;;8.90;3.30;;;;;;;;;;5029926;28;20044;-88
2022/09/07 10:15:05;;;;;;;6.90;3.67;;;;;;;;;;5029313;28;20144;-88
2022/09/07 10:17:46;;;;;;;5.85;3.50;;;;;;;;;;5041156;28;20049;-88
2022/09/07 10:20:37;;;;;;;8.85;3.45;;;;;;;;;;5027234;28;20145;-96
2022/09/07 10:23:20;;;;;;;9.75;3.38;;;;;;;;;;4981590;28;20535;-96
2022/09/07 10:26:27;;;;;;;8.70;3.80;;;;;;;;;;5029027;28;20042;-96
2022/09/07 10:29:28;;;;;;;7.63;3.95;;;;;;;;;;5013173;28;20609;-96
2022/09/07 10:32:23;;;;;;;6.95;3.75;;;;;;;;;;4996243;28;20054;-96
2022/09/07 10:34:57;;;;;;;7.18;4.22;;;;;;;;;;4980250;28;20121;-96
2022/09/07 10:37:49;;;;;;;6.95;3.75;;;;;;;;;;5028991;28;20116;-96
2022/09/07 10:40:32;;;;;;;5.57;3.65;;;;;;;;;;5033639;28;20084;-89
2022/09/07 10:43:27;;;;;;;6.13;3.95;;;;;;;;;;5026884;28;20053;-88
2022/09/07 10:46:46;;;;;;;6.53;3.80;;;;;;;;;;5029320;28;20159;-89
2022/09/07 10:49:39;;;;;;;5.45;3.70;;;;;;;;;;5041854;28;20504;-96
2022/09/07 10:52:51;;;;;;;7.15;3.85;;;;;;;;;;5046486;28;20383;-88
2022/09/07 10:55:31;;;;;;;7.35;4.10;;;;;;;;;;5047225;28;20043;-88
2022/09/07 10:58:04;;;;;;;7.43;3.85;;;;;;;;;;5042682;28;20061;-89
2022/09/07 11:01:21;;;;;;;7.60;3.90;;;;;;;;;;5002054;28;20486;-88
2022/09/07 11:04:48;;;;;;;7.07;4.13;;;;;;;;;;4991553;28;20532;-89
2022/09/07 11:07:27;;;;;;;7.10;3.92;;;;;;;;;;4988684;28;20058;-89
2022/09/07 11:10:11;;;;;;;8.55;4.40;;;;;;;;;;4988655;28;20047;-96
2022/09/07 11:13:12;;;;;;;8.15;4.50;;;;;;;;;;5008134;28;20395;-96
2022/09/07 11:15:45;;;;;;;6.53;3.95;;;;;;;;;;4992553;28;20050;-96
2022/09/07 11:18:25;;;;;;;6.85;4.38;;;;;;;;;;4992386;28;20130;-96
2022/09/07 11:20:59;;;;;;;7.07;4.40;;;;;;;;;;4984869;28;20066;-96
2022/09/07 11:23:43;;;;;;;5.15;3.63;;;;;;;;;;4976544;28;20094;-96
2022/09/07 11:26:38;;;;;;;6.38;3.83;;;;;;;;;;4975660;28;20483;-96
2022/09/07 11:29:23;;;;;;;5.88;3.80;;;;;;;;;;4992727;28;20150;-96
2022/09/07 11:32:23;;;;;;;6.25;3.80;;;;;;;;;;4992025;28;20121;-96
2022/09/07 11:35:08;;;;;;;7.55;4.88;;;;;;;;;;4992741;28;20046;-96
2022/09/07 11:37:47;;;;;;;7.90;4.82;;;;;;;;;;4992041;28;20082;-96
2022/09/07 11:40:23;;;;;;;8.90;4.55;;;;;;;;;;4996365;28;20502;-89
2022/09/07 11:42:58;;;;;;;7.15;4.05;;;;;;;;;;5062885;28;20065;-89
2022/09/07 11:45:46;;;;;;;9.65;4.30;;;;;;;;;;5010524;28;20084;-89
2022/09/07 11:48:23;;;;;;;11.57;4.53;;;;;;;;;;5032648;28;20052;-89
2022/09/07 11:51:12;;;;;;;6.82;4.05;;;;;;;;;;5013777;28;20076;-96
2022/09/07 11:54:31;;;;;;;6.72;4.20;;;;;;;;;;5049052;28;20042;-96
2022/09/07 11:57:53;;;;;;;6.43;4.15;;;;;;;;;;5019668;28;20033;-96
2022/09/07 12:01:16;;;;;;;6.07;3.97;;;;;;;;;;4963944;28;20080;-89
2022/09/07 12:04:01;;;;;;;6.22;3.83;;;;;;;;;;4941341;28;20054;-89
2022/09/07 12:06:57;;;;;;;5.75;3.80;;;;;;;;;;4968635;28;20134;-89
2022/09/07 12:09:37;;;;;;;;;;;;;;;;;;4963908;28;20051;-96
2022/09/07 12:12:15;;;;;;;9.63;4.10;;;;;;;;;;4959762;28;19922;-89
2022/09/07 12:15:12;;;;;;;6.10;4.20;;;;;;;;;;4943537;28;20049;-89
2022/09/07 12:18:02;;;;;;;7.55;3.65;;;;;;;;;;4954395;28;20072;-89
2022/09/07 12:20:39;;;;;;;6.85;3.90;;;;;;;;;;4968857;28;20054;-96
2022/09/07 12:23:16;;;;;;;7.07;4.03;;;;;;;;;;4974618;28;20142;-96
2022/09/07 12:25:47;;;;;;;6.47;3.97;;;;;;;;;;4974904;28;20046;-96
2022/09/07 12:28:39;;;;;;;;;;;;;;;;;;4981741;28;20496;-96
2022/09/07 12:31:46;;;;;;;11.00;4.43;;;;;;;;;;4972382;28;19915;-91
2022/09/07 12:35:00;;;;;;;7.30;3.88;;;;;;;;;;4984284;28;20104;-92
2022/09/07 12:37:36;;;;;;;6.13;3.95;;;;;;;;;;5002536;28;20057;-91
2022/09/07 12:40:27;;;;;;;5.85;3.63;;;;;;;;;;5029115;28;20037;-91
2022/09/07 12:43:21;;;;;;;7.07;3.50;;;;;;;;;;5064003;28;20049;-91
2022/09/07 12:45:51;;;;;;;8.18;3.90;;;;;;;;;;5038930;28;20390;-91
2022/09/07 12:48:32;;;;;;;5.35;3.78;;;;;;;;;;5024405;28;20050;-90
2022/09/07 12:51:25;;;;;;;7.75;3.92;;;;;;;;;;5033118;28;20052;-91
2022/09/07 12:54:42;;;;;;;5.45;3.88;;;;;;;;;;5040731;28;20482;-91
2022/09/07 12:57:45;;;;;;;;;;;;;;;;;;5029826;28;20049;-91
2022/09/07 13:00:22;;;;;;;7.28;4.45;;;;;;;;;;5019861;28;19967;-96
2022/09/07 13:03:26;;;;;;;5.82;3.72;;;;;;;;;;5052735;28;20041;-96
2022/09/07 13:06:40;;;;;;;7.10;3.85;;;;;;;;;;5022252;28;20049;-96
2022/09/07 13:09:35;;;;;;;7.75;4.20;;;;;;;;;;5020249;28;20053;-96
2022/09/07 13:12:31;;;;;;;6.97;4.05;;;;;;;;;;5045856;28;20068;-91
2022/09/07 13:15:39;;;;;;;9.52;5.03;;;;;;;;;;5024329;28;20061;-91
2022/09/07 13:18:36;;;;;;;10.98;3.97;;;;;;;;;;5031466;28;20397;-91
2022/09/07 13:21:06;;;;;;;;;;;;;;;;;;5015262;28;20065;-95
2022/09/07 13:24:05;;;;;;;4.82;3.30;;;;;;;;;;5019138;28;19926;-95
2022/09/07 13:27:49;;;;;;;5.63;3.65;;;;;;;;;;5042344;28;20079;-96
2022/09/07 13:30:30;;;;;;;9.93;3.72;;;;;;;;;;5044635;28;20066;-92
2022/09/07 13:33:22;;;;;;;9.48;4.20;;;;;;;;;;5044252;28;20131;-91
2022/09/07 13:35:52;;;;;;;5.80;3.58;;;;;;;;;;5037230;28;20048;-91
2022/09/07 13:38:20;;;;;;;7.22;3.92;;;;;;;;;;5013227;28;20034;-91
2022/09/07 13:41:20;;;;;;;8.98;4.45;;;;;;;;;;5026558;28;20033;-91
2022/09/07 13:43:49;;;;;;;4.72;3.63;;;;;;;;;;5027937;28;20041;-91
2022/09/07 13:46:50;;;;;;;5.53;3.55;;;;;;;;;;5058530;28;20033;-91
2022/09/07 13:50:00;;;;;;;7.97;4.15;;;;;;;;;;5033521;28;20049;-92
2022/09/07 13:53:07;;;;;;;5.75;3.92;;;;;;;;;;5019912;28;20137;-91
2022/09/07 13:55:44;;;;;;;6.78;3.63;;;;;;;;;;5028293;28;20076;-91
2022/09/07 13:58:17;;;;;;;7.10;3.50;;;;;;;;;;5036381;28;20444;-91
2022/09/07 14:01:11;;;;;;;7.28;3.95;;;;;;;;;;5032687;28;20041;-91
2022/09/07 14:04:06;;;;;;;5.50;3.83;;;;;;;;;;5032487;28;20478;-91
2022/09/07 14:06:39;;;;;;;5.95;4.38;;;;;;;;;;5028935;28;20041;-91
2022/09/07 14:09:22;;;;;;;7.68;4.43;;;;;;;;;;5013766;28;20513;-92
2022/09/07 14:11:52;;;;;;;6.35;4.07;;;;;;;;;;5042004;28;20049;-91
2022/09/07 14:14:21;;;;;;;5.55;3.63;;;;;;;;;;5027702;28;20160;-90
2022/09/07 14:17:17;;;;;;;6.20;4.30;;;;;;;;;;5012210;28;20478;-91
2022/09/07 14:19:49;;;;;;;7.72;3.90;;;;;;;;;;5031586;28;20072;-95
2022/09/07 14:22:27;;;;;;;7.13;4.13;;;;;;;;;;5001378;28;20096;-95
2022/09/07 14:24:57;;;;;;;5.88;3.90;;;;;;;;;;5018204;28;20390;-94
2022/09/07 14:27:36;;;;;;;7.25;4.10;;;;;;;;;;5020284;28;20487;-95
2022/09/07 14:30:25;;;;;;;5.28;3.90;;;;;;;;;;5021736;28;20056;-91
2022/09/07 14:32:56;;;;;;;9.20;3.63;;;;;;;;;;5019625;28;20132;-91
2022/09/07 14:35:27;;;;;;;6.68;4.25;;;;;;;;;;5019914;28;20041;-91
2022/09/07 14:38:19;;;;;;;7.80;3.85;;;;;;;;;;5019690;28;20044;-91
2022/09/07 14:41:10;;;;;;;6.53;4.22;;;;;;;;;;5028787;28;20505;-91
2022/09/07 14:43:49;;;;;;;8.35;4.50;;;;;;;;;;5019563;28;20042;-91
2022/09/07 14:46:22;;;;;;;7.25;4.28;;;;;;;;;;5021763;28;20124;-91
2022/09/07 14:49:00;;;;;;;6.28;4.32;;;;;;;;;;5056635;28;20088;-91
2022/09/07 14:51:41;;;;;;;7.80;3.72;;;;;;;;;;5036986;28;20037;-95
2022/09/07 14:54:26;;;;;;;7.22;3.97;;;;;;;;;;5052849;28;20069;-94
2022/09/07 14:57:30;;;;;;;6.38;3.90;;;;;;;;;;5057030;28;20064;-94
2022/09/07 15:00:29;;;;;;;13.75;4.50;;;;;;;;;;5053592;28;20049;-94
2022/09/07 15:03:23;;;;;;;9.85;4.53;;;;;;;;;;5036226;28;20049;-95
2022/09/07 15:05:59;;;;;;;9.82;4.55;;;;;;;;;;5035958;28;20095;-95
2022/09/07 15:08:55;;;;;;;6.15;4.13;;;;;;;;;;5052598;28;20501;-94
2022/09/07 15:11:35;;;;;;;6.45;3.80;;;;;;;;;;5030410;28;20050;-93
2022/09/07 15:14:16;;;;;;;7.50;4.15;;;;;;;;;;4998252;28;20556;-94
2022/09/07 15:16:55;;;;;;;6.90;3.97;;;;;;;;;;5014988;28;20053;-94
2022/09/07 15:19:49;;;;;;;7.32;4.28;;;;;;;;;;5015944;28;20461;-91
2022/09/07 15:22:42;;;;;;;7.75;4.38;;;;;;;;;;5020868;28;20049;-91
2022/09/07 15:25:38;;;;;;;7.15;4.63;;;;;;;;;;4988546;28;20069;-91
2022/09/07 15:28:22;;;;;;;10.18;5.53;;;;;;;;;;5004276;28;20057;-91
2022/09/07 15:31:40;;;;;;;6.32;3.75;;;;;;;;;;5026549;28;20068;-91
2022/09/07 15:34:19;;;;;;;6.78;5.03;;;;;;;;;;5040657;28;20123;-91
2022/09/07 15:37:11;;;;;;;7.50;4.38;;;;;;;;;;4988241;28;20520;-91
2022/09/07 15:39:59;;;;;;;5.60;4.50;;;;;;;;;;5037002;28;20068;-91
2022/09/07 15:42:29;;;;;;;6.63;4.53;;;;;;;;;;4988530;28;21973;-91
2022/09/07 15:45:17;;;;;;;6.00;4.15;;;;;;;;;;4997670;28;20049;-92
2022/09/07 15:48:14;;;;;;;6.13;4.70;;;;;;;;;;5025932;28;20069;-90
2022/09/07 15:50:41;;;;;;;6.13;3.97;;;;;;;;;;5066555;28;20105;-95
2022/09/07 15:53:09;;;;;;;6.68;4.45;;;;;;;;;;5052512;28;20124;-93
2022/09/07 15:56:00;;;;;;;6.70;4.70;;;;;;;;;;5039391;28;20490;-95
2022/09/07 15:58:42;;;;;;;5.43;4.15;;;;;;;;;;5053822;28;20048;-96
2022/09/07 16:01:12;;;;;;;6.03;4.55;;;;;;;;;;5052026;28;20099;-95
2022/09/07 16:03:59;;;;;;;7.07;4.45;;;;;;;;;;5035037;28;20041;-96
2022/09/07 16:06:36;;;;;;;7.88;5.15;;;;;;;;;;5059223;28;20053;-96
2022/09/07 16:09:09;;;;;;;5.53;4.32;;;;;;;;;;5054693;28;20068;-95
2022/09/07 16:11:42;;;;;;;5.75;3.78;;;;;;;;;;5019217;28;20053;-96
2022/09/07 16:14:15;;;;;;;7.30;3.83;;;;;;;;;;5020152;28;20125;-96
2022/09/07 16:16:43;;;;;;;4.97;3.70;;;;;;;;;;5021095;28;20502;-95